createdAt,value
2017-02-05T00:00:03.695Z,990.79
2017-02-05T00:01:04.080Z,990.80
2017-02-05T00:02:04.623Z,990.79
2017-02-05T00:03:05.144Z,990.79
2017-02-05T00:04:05.672Z,990.82
2017-02-05T00:05:06.207Z,990.76
2017-02-05T00:06:06.744Z,990.78
2017-02-05T00:07:07.275Z,990.75
2017-02-05T00:08:07.806Z,990.77
2017-02-05T00:09:08.326Z,990.73
2017-02-05T00:10:08.872Z,990.75
2017-02-05T00:11:09.391Z,990.76
2017-02-05T00:12:09.918Z,990.79
2017-02-05T00:13:10.448Z,990.81
2017-02-05T00:14:11.130Z,990.84
2017-02-05T00:15:11.541Z,990.85
2017-02-05T00:16:12.057Z,990.82
2017-02-05T00:17:12.576Z,990.85
2017-02-05T00:18:13.123Z,990.86
2017-02-05T00:19:13.633Z,990.90
2017-02-05T00:20:14.174Z,990.90
2017-02-05T00:21:14.694Z,990.87
2017-02-05T00:22:15.233Z,990.91
2017-02-05T00:23:15.901Z,990.95
2017-02-05T00:24:16.299Z,990.91
2017-02-05T00:25:16.963Z,990.95
2017-02-05T00:26:17.367Z,990.97
2017-02-05T00:27:17.882Z,990.94
2017-02-05T00:28:18.567Z,990.98
2017-02-05T00:29:18.957Z,990.96
2017-02-05T00:30:19.494Z,991.01
2017-02-05T00:31:20.021Z,990.91
2017-02-05T00:32:20.561Z,990.96
2017-02-05T00:33:21.220Z,990.96
2017-02-05T00:34:21.611Z,990.99
2017-02-05T00:35:22.134Z,990.96
2017-02-05T00:36:22.666Z,991.00
2017-02-05T00:37:23.196Z,990.97
2017-02-05T00:38:23.730Z,991.00
2017-02-05T00:39:24.250Z,990.97
2017-02-05T00:40:24.792Z,990.95
2017-02-05T00:41:25.312Z,990.96
2017-02-05T00:42:25.850Z,990.91
2017-02-05T00:43:26.516Z,990.95
2017-02-05T00:44:26.906Z,990.93
2017-02-05T00:45:27.433Z,990.87
2017-02-05T00:46:28.107Z,990.96
2017-02-05T00:47:28.494Z,990.91
2017-02-05T00:48:29.174Z,990.97
2017-02-05T00:49:29.557Z,990.95
2017-02-05T00:50:30.093Z,990.90
2017-02-05T00:51:30.618Z,990.92
2017-02-05T00:52:31.145Z,990.96
2017-02-05T00:53:31.675Z,990.88
2017-02-05T00:54:32.209Z,990.97
2017-02-05T00:55:32.735Z,990.95
2017-02-05T00:56:33.273Z,990.97
2017-02-05T00:57:33.789Z,990.92
2017-02-05T00:58:34.334Z,990.91
2017-02-05T00:59:34.852Z,990.93
2017-02-05T01:00:35.525Z,990.91
2017-02-05T01:01:35.910Z,990.95
2017-02-05T01:02:36.448Z,990.95
2017-02-05T01:03:37.270Z,990.90
2017-02-05T01:04:37.534Z,990.89
2017-02-05T01:05:38.039Z,990.84
2017-02-05T01:06:38.578Z,990.88
2017-02-05T01:07:39.101Z,990.86
2017-02-05T01:08:39.782Z,990.88
2017-02-05T01:09:40.170Z,990.94
2017-02-05T01:10:40.708Z,990.93
2017-02-05T01:11:41.241Z,990.94
2017-02-05T01:12:41.784Z,990.97
2017-02-05T01:13:42.303Z,990.92
2017-02-05T01:14:42.984Z,991.00
2017-02-05T01:15:43.363Z,990.94
2017-02-05T01:16:43.903Z,990.93
2017-02-05T01:17:44.565Z,990.92
2017-02-05T01:18:45.098Z,990.97
2017-02-05T01:19:45.627Z,990.97
2017-02-05T01:20:46.156Z,990.98
2017-02-05T01:21:46.545Z,991.00
2017-02-05T01:22:47.218Z,991.02
2017-02-05T01:23:47.599Z,991.00
2017-02-05T01:24:48.137Z,991.01
2017-02-05T01:25:48.658Z,991.01
2017-02-05T01:26:49.199Z,990.97
2017-02-05T01:27:49.724Z,991.00
2017-02-05T01:28:50.402Z,991.00
2017-02-05T01:29:50.785Z,991.03
2017-02-05T01:30:51.311Z,991.04
2017-02-05T01:31:51.845Z,991.10
2017-02-05T01:32:52.391Z,991.05
2017-02-05T01:33:53.053Z,991.08
2017-02-05T01:34:53.584Z,991.10
2017-02-05T01:35:54.110Z,991.10
2017-02-05T01:36:54.504Z,991.11
2017-02-05T01:37:55.167Z,991.14
2017-02-05T01:38:55.569Z,991.13
2017-02-05T01:39:56.080Z,991.13
2017-02-05T01:40:56.614Z,991.12
2017-02-05T01:41:57.287Z,991.16
2017-02-05T01:42:57.729Z,991.14
2017-02-05T01:43:58.204Z,991.17
2017-02-05T01:44:58.880Z,991.17
2017-02-05T01:45:59.264Z,991.15
2017-02-05T01:46:59.948Z,991.17
2017-02-05T01:48:00.333Z,991.12
2017-02-05T01:49:00.875Z,991.24
2017-02-05T01:50:01.393Z,991.16
2017-02-05T01:51:01.934Z,991.22
2017-02-05T01:52:02.611Z,991.16
2017-02-05T01:53:03.006Z,991.17
2017-02-05T01:54:03.539Z,991.17
2017-02-05T01:55:04.076Z,991.17
2017-02-05T01:56:04.742Z,991.20
2017-02-05T01:57:05.138Z,991.25
2017-02-05T01:58:05.660Z,991.26
2017-02-05T01:59:06.340Z,991.29
2017-02-05T02:00:06.864Z,991.26
2017-02-05T02:01:07.260Z,991.26
2017-02-05T02:02:07.787Z,991.30
2017-02-05T02:03:08.460Z,991.29
2017-02-05T02:04:08.988Z,991.30
2017-02-05T02:05:09.396Z,991.31
2017-02-05T02:06:09.906Z,991.26
2017-02-05T02:07:10.440Z,991.29
2017-02-05T02:08:10.963Z,991.31
2017-02-05T02:09:11.508Z,991.27
2017-02-05T02:10:12.021Z,991.31
2017-02-05T02:11:12.697Z,991.34
2017-02-05T02:12:13.228Z,991.31
2017-02-05T02:13:13.621Z,991.26
2017-02-05T02:14:14.143Z,991.28
2017-02-05T02:15:14.697Z,991.32
2017-02-05T02:16:15.211Z,991.30
2017-02-05T02:17:15.742Z,991.29
2017-02-05T02:18:16.265Z,991.32
2017-02-05T02:19:16.937Z,991.34
2017-02-05T02:20:17.469Z,991.37
2017-02-05T02:21:17.867Z,991.34
2017-02-05T02:22:18.385Z,991.39
2017-02-05T02:23:19.069Z,991.38
2017-02-05T02:24:19.449Z,991.39
2017-02-05T02:25:19.986Z,991.39
2017-02-05T02:26:20.650Z,991.37
2017-02-05T02:27:21.182Z,991.32
2017-02-05T02:28:21.709Z,991.33
2017-02-05T02:29:22.242Z,991.35
2017-02-05T02:30:22.627Z,991.36
2017-02-05T02:31:23.167Z,991.37
2017-02-05T02:32:23.840Z,991.40
2017-02-05T02:33:24.377Z,991.39
2017-02-05T02:34:24.770Z,991.38
2017-02-05T02:35:25.442Z,991.46
2017-02-05T02:36:25.833Z,991.47
2017-02-05T02:37:26.508Z,991.38
2017-02-05T02:38:26.889Z,991.43
2017-02-05T02:39:27.430Z,991.47
2017-02-05T02:40:27.957Z,991.45
2017-02-05T02:41:28.632Z,991.49
2017-02-05T02:42:29.163Z,991.51
2017-02-05T02:43:29.690Z,991.49
2017-02-05T02:44:30.078Z,991.49
2017-02-05T02:45:30.754Z,991.47
2017-02-05T02:46:31.138Z,991.48
2017-02-05T02:47:31.669Z,991.47
2017-02-05T02:48:32.202Z,991.55
2017-02-05T02:49:32.724Z,991.50
2017-02-05T02:50:33.254Z,991.51
2017-02-05T02:51:33.788Z,991.53
2017-02-05T02:52:34.314Z,991.56
2017-02-05T02:53:34.852Z,991.52
2017-02-05T02:54:35.380Z,991.57
2017-02-05T02:55:36.056Z,991.56
2017-02-05T02:56:36.443Z,991.61
2017-02-05T02:57:36.971Z,991.54
2017-02-05T02:58:37.498Z,991.59
2017-02-05T02:59:38.176Z,991.58
2017-02-05T03:00:38.560Z,991.55
2017-02-05T03:01:39.102Z,991.55
2017-02-05T03:02:39.624Z,991.60
2017-02-05T03:03:40.444Z,991.59
2017-02-05T03:04:40.826Z,991.59
2017-02-05T03:05:41.215Z,991.63
2017-02-05T03:06:41.740Z,991.64
2017-02-05T03:07:42.419Z,991.67
2017-02-05T03:08:42.802Z,991.67
2017-02-05T03:09:43.346Z,991.66
2017-02-05T03:10:43.861Z,991.66
2017-02-05T03:11:44.546Z,991.68
2017-02-05T03:12:45.073Z,991.68
2017-02-05T03:13:45.633Z,991.70
2017-02-05T03:14:46.139Z,991.72
2017-02-05T03:15:46.679Z,991.76
2017-02-05T03:16:47.062Z,991.74
2017-02-05T03:17:47.596Z,991.78
2017-02-05T03:18:48.129Z,991.78
2017-02-05T03:19:48.806Z,991.76
2017-02-05T03:20:49.194Z,991.79
2017-02-05T03:21:49.729Z,991.85
2017-02-05T03:22:50.255Z,991.79
2017-02-05T03:23:50.791Z,991.85
2017-02-05T03:24:51.314Z,991.87
2017-02-05T03:25:51.847Z,991.94
2017-02-05T03:26:52.373Z,991.90
2017-02-05T03:27:52.899Z,991.82
2017-02-05T03:28:53.430Z,991.84
2017-02-05T03:29:53.959Z,991.91
2017-02-05T03:30:54.492Z,991.88
2017-02-05T03:31:55.022Z,991.90
2017-02-05T03:32:55.555Z,991.84
2017-02-05T03:33:56.084Z,991.90
2017-02-05T03:34:56.613Z,991.94
2017-02-05T03:35:57.290Z,991.90
2017-02-05T03:36:57.678Z,991.92
2017-02-05T03:37:58.205Z,991.94
2017-02-05T03:38:58.742Z,991.91
2017-02-05T03:39:59.274Z,991.98
2017-02-05T03:40:59.800Z,992.02
2017-02-05T03:42:00.362Z,992.01
2017-02-05T03:43:01.161Z,991.97
2017-02-05T03:44:01.395Z,991.99
2017-02-05T03:45:01.925Z,991.99
2017-02-05T03:46:02.602Z,992.02
2017-02-05T03:47:03.130Z,991.96
2017-02-05T03:48:03.517Z,992.05
2017-02-05T03:49:04.049Z,992.07
2017-02-05T03:50:04.578Z,992.02
2017-02-05T03:51:05.251Z,992.06
2017-02-05T03:52:05.785Z,992.16
2017-02-05T03:53:06.181Z,992.09
2017-02-05T03:54:06.705Z,992.14
2017-02-05T03:55:07.243Z,992.10
2017-02-05T03:56:07.923Z,992.17
2017-02-05T03:57:08.451Z,992.15
2017-02-05T03:58:08.987Z,992.18
2017-02-05T03:59:09.372Z,992.17
2017-02-05T04:00:10.053Z,992.22
2017-02-05T04:01:10.582Z,992.18
2017-02-05T04:02:10.969Z,992.18
2017-02-05T04:03:11.497Z,992.20
2017-02-05T04:04:12.063Z,992.21
2017-02-05T04:05:12.559Z,992.20
2017-02-05T04:06:13.087Z,992.20
2017-02-05T04:07:13.621Z,992.25
2017-02-05T04:08:14.156Z,992.19
2017-02-05T04:09:14.681Z,992.20
2017-02-05T04:10:15.358Z,992.23
2017-02-05T04:11:15.743Z,992.19
2017-02-05T04:12:16.272Z,992.25
2017-02-05T04:13:16.804Z,992.27
2017-02-05T04:14:17.334Z,992.23
2017-02-05T04:15:17.866Z,992.28
2017-02-05T04:16:18.394Z,992.27
2017-02-05T04:17:18.937Z,992.26
2017-02-05T04:18:19.459Z,992.32
2017-02-05T04:19:19.990Z,992.23
2017-02-05T04:20:20.669Z,992.25
2017-02-05T04:21:21.050Z,992.25
2017-02-05T04:22:21.743Z,992.28
2017-02-05T04:23:22.258Z,992.34
2017-02-05T04:24:22.647Z,992.36
2017-02-05T04:25:23.175Z,992.33
2017-02-05T04:26:23.719Z,992.30
2017-02-05T04:27:24.238Z,992.33
2017-02-05T04:28:24.769Z,992.33
2017-02-05T04:29:25.298Z,992.30
2017-02-05T04:30:25.974Z,992.37
2017-02-05T04:31:26.355Z,992.35
2017-02-05T04:32:26.912Z,992.32
2017-02-05T04:33:27.415Z,992.32
2017-02-05T04:34:28.097Z,992.34
2017-02-05T04:35:28.484Z,992.41
2017-02-05T04:36:29.015Z,992.40
2017-02-05T04:37:29.560Z,992.38
2017-02-05T04:38:30.123Z,992.41
2017-02-05T04:39:30.618Z,992.40
2017-02-05T04:40:31.147Z,992.39
2017-02-05T04:41:31.682Z,992.36
2017-02-05T04:42:32.221Z,992.41
2017-02-05T04:43:32.890Z,992.38
2017-02-05T04:44:33.273Z,992.40
2017-02-05T04:45:33.807Z,992.41
2017-02-05T04:46:34.360Z,992.43
2017-02-05T04:47:34.863Z,992.39
2017-02-05T04:48:35.419Z,992.36
2017-02-05T04:49:35.927Z,992.30
2017-02-05T04:50:36.602Z,992.34
2017-02-05T04:51:37.134Z,992.36
2017-02-05T04:52:37.661Z,992.36
2017-02-05T04:53:38.045Z,992.36
2017-02-05T04:54:38.572Z,992.35
2017-02-05T04:55:39.254Z,992.35
2017-02-05T04:56:39.788Z,992.30
2017-02-05T04:57:40.176Z,992.33
2017-02-05T04:58:40.849Z,992.33
2017-02-05T04:59:41.231Z,992.33
2017-02-05T05:00:41.916Z,992.32
2017-02-05T05:01:42.299Z,992.31
2017-02-05T05:02:42.874Z,992.36
2017-02-05T05:03:43.507Z,992.30
2017-02-05T05:04:44.041Z,992.26
2017-02-05T05:05:44.424Z,992.33
2017-02-05T05:06:44.952Z,992.29
2017-02-05T05:07:45.628Z,992.36
2017-02-05T05:08:46.024Z,992.34
2017-02-05T05:09:46.548Z,992.33
2017-02-05T05:10:47.072Z,992.38
2017-02-05T05:11:47.605Z,992.33
2017-02-05T05:12:48.138Z,992.34
2017-02-05T05:13:48.664Z,992.35
2017-02-05T05:14:49.197Z,992.32
2017-02-05T05:15:49.871Z,992.29
2017-02-05T05:16:50.268Z,992.31
2017-02-05T05:17:50.943Z,992.28
2017-02-05T05:18:51.481Z,992.32
2017-02-05T05:19:51.868Z,992.30
2017-02-05T05:20:52.398Z,992.38
2017-02-05T05:21:52.928Z,992.31
2017-02-05T05:22:53.453Z,992.34
2017-02-05T05:23:53.984Z,992.30
2017-02-05T05:24:54.514Z,992.34
2017-02-05T05:25:55.054Z,992.31
2017-02-05T05:26:55.580Z,992.38
2017-02-05T05:27:56.106Z,992.35
2017-02-05T05:28:56.638Z,992.33
2017-02-05T05:29:57.179Z,992.39
2017-02-05T05:30:57.699Z,992.36
2017-02-05T05:31:58.231Z,992.37
2017-02-05T05:32:58.914Z,992.34
2017-02-05T05:33:59.294Z,992.33
2017-02-05T05:34:59.821Z,992.37
2017-02-05T05:36:00.353Z,992.32
2017-02-05T05:37:01.032Z,992.37
2017-02-05T05:38:01.413Z,992.37
2017-02-05T05:39:02.090Z,992.43
2017-02-05T05:40:02.478Z,992.43
2017-02-05T05:41:03.010Z,992.45
2017-02-05T05:42:03.538Z,992.46
2017-02-05T05:43:04.363Z,992.44
2017-02-05T05:44:04.598Z,992.40
2017-02-05T05:45:05.126Z,992.46
2017-02-05T05:46:05.659Z,992.44
2017-02-05T05:47:06.192Z,992.43
2017-02-05T05:48:06.729Z,992.39
2017-02-05T05:49:07.410Z,992.47
2017-02-05T05:50:07.792Z,992.50
2017-02-05T05:51:08.321Z,992.55
2017-02-05T05:52:08.857Z,992.49
2017-02-05T05:53:09.396Z,992.52
2017-02-05T05:54:09.921Z,992.50
2017-02-05T05:55:10.452Z,992.48
2017-02-05T05:56:10.988Z,992.51
2017-02-05T05:57:11.519Z,992.48
2017-02-05T05:58:12.048Z,992.49
2017-02-05T05:59:12.620Z,992.49
2017-02-05T06:00:13.122Z,992.51
2017-02-05T06:01:13.805Z,992.47
2017-02-05T06:02:14.185Z,992.47
2017-02-05T06:03:14.718Z,992.49
2017-02-05T06:04:15.392Z,992.46
2017-02-05T06:05:15.781Z,992.50
2017-02-05T06:06:16.453Z,992.47
2017-02-05T06:07:16.841Z,992.42
2017-02-05T06:08:17.369Z,992.46
2017-02-05T06:09:18.046Z,992.42
2017-02-05T06:10:18.433Z,992.49
2017-02-05T06:11:18.955Z,992.42
2017-02-05T06:12:19.488Z,992.47
2017-02-05T06:13:20.028Z,992.48
2017-02-05T06:14:20.552Z,992.49
2017-02-05T06:15:21.078Z,992.55
2017-02-05T06:16:21.760Z,992.55
2017-02-05T06:17:22.294Z,992.57
2017-02-05T06:18:22.675Z,992.52
2017-02-05T06:19:23.209Z,992.54
2017-02-05T06:20:23.736Z,992.51
2017-02-05T06:21:24.302Z,992.58
2017-02-05T06:22:24.814Z,992.59
2017-02-05T06:23:25.478Z,992.57
2017-02-05T06:24:25.861Z,992.62
2017-02-05T06:25:26.534Z,992.60
2017-02-05T06:26:26.919Z,992.62
2017-02-05T06:27:27.451Z,992.63
2017-02-05T06:28:27.981Z,992.65
2017-02-05T06:29:28.516Z,992.67
2017-02-05T06:30:29.039Z,992.66
2017-02-05T06:31:29.725Z,992.65
2017-02-05T06:32:30.115Z,992.67
2017-02-05T06:33:30.648Z,992.68
2017-02-05T06:34:31.191Z,992.67
2017-02-05T06:35:31.766Z,992.67
2017-02-05T06:36:32.265Z,992.67
2017-02-05T06:37:32.804Z,992.71
2017-02-05T06:38:33.340Z,992.69
2017-02-05T06:39:34.028Z,992.72
2017-02-05T06:40:34.417Z,992.73
2017-02-05T06:41:35.110Z,992.70
2017-02-05T06:42:35.652Z,992.74
2017-02-05T06:43:36.061Z,992.76
2017-02-05T06:44:36.575Z,992.71
2017-02-05T06:45:37.260Z,992.71
2017-02-05T06:46:37.649Z,992.77
2017-02-05T06:47:38.217Z,992.72
2017-02-05T06:48:38.724Z,992.71
2017-02-05T06:49:39.417Z,992.78
2017-02-05T06:50:39.951Z,992.76
2017-02-05T06:51:40.358Z,992.77
2017-02-05T06:52:40.875Z,992.85
2017-02-05T06:53:41.449Z,992.82
2017-02-05T06:54:42.079Z,992.88
2017-02-05T06:55:42.463Z,992.84
2017-02-05T06:56:42.993Z,992.83
2017-02-05T06:57:43.528Z,992.82
2017-02-05T06:58:44.211Z,992.85
2017-02-05T06:59:44.603Z,992.82
2017-02-05T07:00:45.142Z,992.81
2017-02-05T07:01:45.829Z,992.77
2017-02-05T07:02:46.376Z,992.87
2017-02-05T07:03:46.901Z,992.89
2017-02-05T07:04:47.286Z,992.86
2017-02-05T07:05:47.964Z,992.84
2017-02-05T07:06:48.341Z,992.86
2017-02-05T07:07:48.871Z,992.85
2017-02-05T07:08:49.406Z,992.82
2017-02-05T07:09:49.939Z,992.85
2017-02-05T07:10:50.476Z,992.80
2017-02-05T07:11:50.999Z,992.80
2017-02-05T07:12:51.528Z,992.86
2017-02-05T07:13:52.060Z,992.81
2017-02-05T07:14:52.591Z,992.77
2017-02-05T07:15:53.120Z,992.81
2017-02-05T07:16:53.653Z,992.80
2017-02-05T07:17:54.180Z,992.79
2017-02-05T07:18:54.861Z,992.78
2017-02-05T07:19:55.246Z,992.77
2017-02-05T07:20:55.781Z,992.80
2017-02-05T07:21:56.313Z,992.85
2017-02-05T07:22:56.849Z,992.83
2017-02-05T07:23:57.416Z,992.87
2017-02-05T07:24:57.912Z,992.85
2017-02-05T07:25:58.449Z,992.86
2017-02-05T07:26:58.980Z,992.84
2017-02-05T07:27:59.509Z,992.85
2017-02-05T07:29:00.044Z,992.87
2017-02-05T07:30:00.586Z,992.80
2017-02-05T07:31:01.097Z,992.86
2017-02-05T07:32:01.626Z,992.82
2017-02-05T07:33:02.154Z,992.87
2017-02-05T07:34:02.681Z,992.86
2017-02-05T07:35:03.219Z,992.86
2017-02-05T07:36:03.775Z,992.92
2017-02-05T07:37:04.272Z,992.99
2017-02-05T07:38:04.797Z,993.00
2017-02-05T07:39:05.332Z,993.02
2017-02-05T07:40:06.011Z,993.02
2017-02-05T07:41:06.395Z,993.02
2017-02-05T07:42:06.928Z,993.00
2017-02-05T07:43:07.460Z,992.96
2017-02-05T07:44:07.983Z,992.98
2017-02-05T07:45:08.522Z,992.97
2017-02-05T07:46:09.065Z,992.95
2017-02-05T07:47:09.585Z,992.96
2017-02-05T07:48:10.119Z,993.00
2017-02-05T07:49:10.658Z,993.04
2017-02-05T07:50:11.185Z,993.04
2017-02-05T07:51:11.725Z,993.04
2017-02-05T07:52:12.242Z,993.06
2017-02-05T07:53:12.775Z,993.06
2017-02-05T07:54:13.307Z,993.09
2017-02-05T07:55:13.842Z,993.07
2017-02-05T07:56:14.364Z,993.14
2017-02-05T07:57:14.901Z,993.08
2017-02-05T07:58:15.576Z,993.10
2017-02-05T07:59:15.958Z,993.08
2017-02-05T08:00:16.493Z,993.08
2017-02-05T08:01:17.026Z,993.11
2017-02-05T08:02:17.548Z,993.09
2017-02-05T08:03:18.083Z,993.12
2017-02-05T08:04:18.767Z,993.09
2017-02-05T08:05:19.305Z,993.15
2017-02-05T08:06:19.837Z,993.15
2017-02-05T08:07:20.224Z,993.16
2017-02-05T08:08:21.048Z,993.21
2017-02-05T08:09:21.285Z,993.18
2017-02-05T08:10:21.814Z,993.18
2017-02-05T08:11:22.347Z,993.19
2017-02-05T08:12:22.874Z,993.19
2017-02-05T08:13:23.410Z,993.21
2017-02-05T08:14:23.940Z,993.19
2017-02-05T08:15:24.467Z,993.28
2017-02-05T08:16:25.008Z,993.23
2017-02-05T08:17:25.525Z,993.19
2017-02-05T08:18:26.082Z,993.20
2017-02-05T08:19:26.582Z,993.18
2017-02-05T08:20:27.116Z,993.21
2017-02-05T08:21:27.788Z,993.19
2017-02-05T08:22:28.171Z,993.22
2017-02-05T08:23:28.706Z,993.30
2017-02-05T08:24:29.230Z,993.27
2017-02-05T08:25:29.909Z,993.29
2017-02-05T08:26:30.439Z,993.27
2017-02-05T08:27:30.967Z,993.26
2017-02-05T08:28:31.356Z,993.27
2017-02-05T08:29:31.886Z,993.22
2017-02-05T08:30:32.563Z,993.22
2017-02-05T08:31:32.946Z,993.29
2017-02-05T08:32:33.476Z,993.25
2017-02-05T08:33:34.008Z,993.23
2017-02-05T08:34:34.554Z,993.25
2017-02-05T08:35:35.069Z,993.28
2017-02-05T08:36:35.597Z,993.29
2017-02-05T08:37:36.127Z,993.25
2017-02-05T08:38:36.656Z,993.29
2017-02-05T08:39:37.191Z,993.30
2017-02-05T08:40:37.722Z,993.27
2017-02-05T08:41:38.246Z,993.22
2017-02-05T08:42:38.926Z,993.22
2017-02-05T08:43:39.310Z,993.24
2017-02-05T08:44:39.836Z,993.21
2017-02-05T08:45:40.521Z,993.22
2017-02-05T08:46:40.913Z,993.22
2017-02-05T08:47:41.616Z,993.20
2017-02-05T08:48:41.983Z,993.20
2017-02-05T08:49:42.513Z,993.25
2017-02-05T08:50:43.189Z,993.22
2017-02-05T08:51:43.574Z,993.25
2017-02-05T08:52:44.251Z,993.21
2017-02-05T08:53:44.633Z,993.19
2017-02-05T08:54:45.309Z,993.23
2017-02-05T08:55:45.838Z,993.19
2017-02-05T08:56:46.372Z,993.24
2017-02-05T08:57:46.753Z,993.19
2017-02-05T08:58:47.281Z,993.18
2017-02-05T08:59:47.815Z,993.17
2017-02-05T09:00:48.496Z,993.26
2017-02-05T09:01:49.018Z,993.25
2017-02-05T09:02:49.553Z,993.27
2017-02-05T09:03:49.930Z,993.27
2017-02-05T09:04:50.466Z,993.38
2017-02-05T09:05:50.997Z,993.33
2017-02-05T09:06:51.530Z,993.33
2017-02-05T09:07:52.056Z,993.31
2017-02-05T09:08:52.588Z,993.26
2017-02-05T09:09:53.127Z,993.27
2017-02-05T09:10:53.659Z,993.26
2017-02-05T09:11:54.182Z,993.28
2017-02-05T09:12:54.715Z,993.32
2017-02-05T09:13:55.391Z,993.26
2017-02-05T09:14:55.779Z,993.28
2017-02-05T09:15:56.306Z,993.28
2017-02-05T09:16:56.829Z,993.28
2017-02-05T09:17:57.361Z,993.30
2017-02-05T09:18:57.923Z,993.32
2017-02-05T09:19:58.418Z,993.25
2017-02-05T09:20:58.944Z,993.28
2017-02-05T09:21:59.484Z,993.30
2017-02-05T09:23:00.021Z,993.27
2017-02-05T09:24:00.539Z,993.29
2017-02-05T09:25:01.066Z,993.25
2017-02-05T09:26:01.602Z,993.27
2017-02-05T09:27:02.285Z,993.27
2017-02-05T09:28:02.968Z,993.22
2017-02-05T09:29:03.208Z,993.31
2017-02-05T09:30:03.742Z,993.27
2017-02-05T09:31:04.272Z,993.31
2017-02-05T09:32:04.801Z,993.35
2017-02-05T09:33:05.334Z,993.32
2017-02-05T09:34:05.863Z,993.35
2017-02-05T09:35:06.399Z,993.35
2017-02-05T09:36:06.928Z,993.34
2017-02-05T09:37:07.457Z,993.38
2017-02-05T09:38:07.994Z,993.37
2017-02-05T09:39:08.547Z,993.36
2017-02-05T09:40:09.053Z,993.38
2017-02-05T09:41:09.732Z,993.35
2017-02-05T09:42:10.114Z,993.36
2017-02-05T09:43:10.642Z,993.41
2017-02-05T09:44:11.178Z,993.40
2017-02-05T09:45:11.705Z,993.39
2017-02-05T09:46:12.237Z,993.40
2017-02-05T09:47:12.917Z,993.39
2017-02-05T09:48:13.301Z,993.45
2017-02-05T09:49:13.979Z,993.46
2017-02-05T09:50:14.357Z,993.47
2017-02-05T09:51:14.893Z,993.51
2017-02-05T09:52:15.423Z,993.48
2017-02-05T09:53:16.108Z,993.40
2017-02-05T09:54:16.489Z,993.35
2017-02-05T09:55:17.163Z,993.39
2017-02-05T09:56:17.547Z,993.42
2017-02-05T09:57:18.224Z,993.41
2017-02-05T09:58:18.606Z,993.43
2017-02-05T09:59:19.133Z,993.47
2017-02-05T10:00:19.809Z,993.47
2017-02-05T10:01:20.191Z,993.46
2017-02-05T10:02:20.721Z,993.43
2017-02-05T10:03:21.259Z,993.48
2017-02-05T10:04:21.788Z,993.46
2017-02-05T10:05:22.465Z,993.47
2017-02-05T10:06:22.992Z,993.50
2017-02-05T10:07:23.674Z,993.50
2017-02-05T10:08:23.908Z,993.55
2017-02-05T10:09:24.594Z,993.49
2017-02-05T10:10:24.976Z,993.52
2017-02-05T10:11:25.508Z,993.53
2017-02-05T10:12:26.191Z,993.55
2017-02-05T10:13:26.580Z,993.53
2017-02-05T10:14:27.109Z,993.53
2017-02-05T10:15:27.784Z,993.48
2017-02-05T10:16:28.169Z,993.50
2017-02-05T10:17:28.700Z,993.47
2017-02-05T10:18:29.229Z,993.51
2017-02-05T10:19:29.757Z,993.45
2017-02-05T10:20:30.291Z,993.44
2017-02-05T10:21:30.817Z,993.43
2017-02-05T10:22:31.347Z,993.46
2017-02-05T10:23:31.883Z,993.53
2017-02-05T10:24:32.409Z,993.51
2017-02-05T10:25:33.088Z,993.51
2017-02-05T10:26:33.473Z,993.55
2017-02-05T10:27:34.019Z,993.54
2017-02-05T10:28:34.533Z,993.60
2017-02-05T10:29:35.065Z,993.59
2017-02-05T10:30:35.596Z,993.51
2017-02-05T10:31:36.131Z,993.57
2017-02-05T10:32:36.659Z,993.55
2017-02-05T10:33:37.198Z,993.50
2017-02-05T10:34:37.719Z,993.52
2017-02-05T10:35:38.260Z,993.50
2017-02-05T10:36:38.783Z,993.47
2017-02-05T10:37:39.320Z,993.47
2017-02-05T10:38:39.839Z,993.48
2017-02-05T10:39:41.265Z,993.47
2017-02-05T10:40:40.898Z,993.44
2017-02-05T10:41:41.571Z,993.44
2017-02-05T10:42:41.954Z,993.47
2017-02-05T10:43:42.630Z,993.44
2017-02-05T10:44:43.012Z,993.51
2017-02-05T10:45:43.609Z,993.49
2017-02-05T10:46:44.081Z,993.51
2017-02-05T10:47:44.615Z,993.51
2017-02-05T10:48:45.132Z,993.57
2017-02-05T10:49:45.666Z,993.56
2017-02-05T10:50:46.199Z,993.60
2017-02-05T10:51:46.879Z,993.61
2017-02-05T10:52:47.270Z,993.64
2017-02-05T10:53:47.809Z,993.61
2017-02-05T10:54:48.336Z,993.59
2017-02-05T10:55:48.875Z,993.49
2017-02-05T10:56:49.543Z,993.55
2017-02-05T10:57:50.074Z,993.48
2017-02-05T10:58:50.600Z,993.48
2017-02-05T10:59:50.984Z,993.47
2017-02-05T11:00:51.527Z,993.50
2017-02-05T11:01:52.206Z,993.46
2017-02-05T11:02:52.587Z,993.46
2017-02-05T11:03:53.115Z,993.48
2017-02-05T11:04:53.652Z,993.49
2017-02-05T11:05:54.330Z,993.51
2017-02-05T11:06:54.707Z,993.45
2017-02-05T11:07:55.243Z,993.51
2017-02-05T11:08:55.772Z,993.52
2017-02-05T11:09:56.451Z,993.55
2017-02-05T11:10:56.833Z,993.53
2017-02-05T11:11:57.512Z,993.51
2017-02-05T11:12:57.894Z,993.52
2017-02-05T11:13:58.574Z,993.55
2017-02-05T11:14:59.100Z,993.48
2017-02-05T11:15:59.635Z,993.52
2017-02-05T11:17:00.031Z,993.51
2017-02-05T11:18:00.550Z,993.51
2017-02-05T11:19:01.079Z,993.57
2017-02-05T11:20:01.757Z,993.50
2017-02-05T11:21:02.136Z,993.50
2017-02-05T11:22:02.684Z,993.51
2017-02-05T11:23:03.197Z,993.52
2017-02-05T11:24:03.723Z,993.53
2017-02-05T11:25:04.407Z,993.55
2017-02-05T11:26:04.811Z,993.53
2017-02-05T11:27:05.319Z,993.60
2017-02-05T11:28:05.848Z,993.59
2017-02-05T11:29:06.380Z,993.60
2017-02-05T11:30:06.907Z,993.60
2017-02-05T11:31:07.449Z,993.60
2017-02-05T11:32:08.116Z,993.61
2017-02-05T11:33:08.499Z,993.58
2017-02-05T11:34:09.044Z,993.60
2017-02-05T11:35:09.573Z,993.52
2017-02-05T11:36:10.104Z,993.50
2017-02-05T11:37:10.637Z,993.51
2017-02-05T11:38:11.173Z,993.53
2017-02-05T11:39:11.840Z,993.50
2017-02-05T11:40:12.375Z,993.52
2017-02-05T11:41:12.765Z,993.49
2017-02-05T11:42:13.283Z,993.52
2017-02-05T11:43:13.819Z,993.54
2017-02-05T11:44:14.351Z,993.52
2017-02-05T11:45:14.884Z,993.50
2017-02-05T11:46:15.410Z,993.56
2017-02-05T11:47:15.943Z,993.53
2017-02-05T11:48:16.501Z,993.55
2017-02-05T11:49:17.009Z,993.50
2017-02-05T11:50:17.684Z,993.50
2017-02-05T11:51:18.212Z,993.50
2017-02-05T11:52:18.602Z,993.51
2017-02-05T11:53:19.132Z,993.58
2017-02-05T11:54:19.695Z,993.58
2017-02-05T11:55:20.334Z,993.59
2017-02-05T11:56:20.894Z,993.59
2017-02-05T11:57:21.254Z,993.64
2017-02-05T11:58:21.779Z,993.64
2017-02-05T11:59:22.316Z,993.61
2017-02-05T12:00:22.848Z,993.64
2017-02-05T12:01:23.378Z,993.64
2017-02-05T12:02:23.906Z,993.63
2017-02-05T12:03:24.585Z,993.60
2017-02-05T12:04:25.001Z,993.55
2017-02-05T12:05:25.496Z,993.57
2017-02-05T12:06:26.179Z,993.62
2017-02-05T12:07:26.703Z,993.59
2017-02-05T12:08:27.121Z,993.60
2017-02-05T12:09:27.625Z,993.56
2017-02-05T12:10:28.301Z,993.56
2017-02-05T12:11:28.829Z,993.61
2017-02-05T12:12:29.215Z,993.59
2017-02-05T12:13:29.889Z,993.59
2017-02-05T12:14:30.269Z,993.63
2017-02-05T12:15:30.805Z,993.63
2017-02-05T12:16:31.487Z,993.64
2017-02-05T12:17:31.871Z,993.59
2017-02-05T12:18:32.555Z,993.61
2017-02-05T12:19:32.941Z,993.61
2017-02-05T12:20:33.467Z,993.48
2017-02-05T12:21:33.999Z,993.49
2017-02-05T12:22:34.678Z,993.52
2017-02-05T12:23:35.058Z,993.42
2017-02-05T12:24:35.737Z,993.45
2017-02-05T12:25:36.121Z,993.37
2017-02-05T12:26:36.650Z,993.35
2017-02-05T12:27:37.327Z,993.38
2017-02-05T12:28:37.714Z,993.40
2017-02-05T12:29:38.256Z,993.36
2017-02-05T12:30:38.807Z,993.36
2017-02-05T12:31:39.315Z,993.35
2017-02-05T12:32:39.831Z,993.36
2017-02-05T12:33:40.365Z,993.36
2017-02-05T12:34:40.896Z,993.34